| time (UTC) | temp F | wind direction | speed MPH | gust MPH | rain 1hr in | rain 24hr in | rain mn in | humidity % | barometer mb |
| 20260510184546 | 79 | 134 | 6.0 | 0.0 | 0.00 | 0.00 | 0.00 | 26 | 1014.6 |
| 20260510183046 | 79 | 169 | 5.0 | 0.0 | 0.00 | 0.00 | 0.00 | 25 | 1014.8 |
| 20260510181546 | 78 | 156 | 5.0 | 0.0 | 0.00 | 0.00 | 0.00 | 27 | 1015.1 |
| 20260510180026 | 77 | 173 | 6.0 | 0.0 | 0.00 | 0.00 | 0.00 | 26 | 1015.3 |
| 20260510174526 | 76 | 178 | 6.0 | 0.0 | 0.00 | 0.00 | 0.00 | 28 | 1015.5 |
| 20260510173026 | 74 | 129 | 7.0 | 0.0 | 0.00 | 0.00 | 0.00 | 29 | 1015.5 |
| 20260510171525 | 73 | 152 | 5.0 | 0.0 | 0.00 | 0.00 | 0.00 | 32 | 1015.5 |
| 20260510170025 | 71 | 202 | 7.0 | 0.0 | 0.00 | 0.00 | 0.00 | 32 | 1015.8 |
| 20260510164537 | 70 | 132 | 6.0 | 0.0 | 0.00 | 0.00 | 0.00 | 34 | 1015.9 |
| 20260510163024 | 70 | 171 | 6.0 | 0.0 | 0.00 | 0.00 | 0.00 | 33 | 1016.0 |
| 20260510161523 | 69 | 191 | 7.0 | 0.0 | 0.00 | 0.00 | 0.00 | 35 | 1016.1 |
| 20260510160023 | 68 | 149 | 3.0 | 0.0 | 0.00 | 0.00 | 0.00 | 42 | 1016.3 |
| 20260510154518 | 65 | 168 | 0.0 | 0.0 | 0.00 | 0.00 | 0.00 | 46 | 1016.3 |
| 20260510153018 | 63 | 163 | 0.0 | 0.0 | 0.00 | 0.00 | 0.00 | 49 | 1016.5 |
| 20260510151508 | 60 | 163 | 0.0 | 0.0 | 0.00 | 0.00 | 0.00 | 53 | 1016.7 |
| 20260510150008 | 57 | 162 | 0.0 | 0.0 | 0.00 | 0.00 | 0.00 | 56 | 1016.7 |
| 20260510144512 | 55 | 162 | 0.0 | 0.0 | 0.00 | 0.00 | 0.00 | 60 | 1016.8 |
| 20260510143007 | 53 | 162 | 0.0 | 0.0 | 0.00 | 0.00 | 0.00 | 60 | 1016.9 |
| 20260510141507 | 51 | 11 | 0.0 | 0.0 | 0.00 | 0.00 | 0.00 | 64 | 1016.7 |
| 20260510140004 | 49 | 13 | 0.0 | 0.0 | 0.00 | 0.00 | 0.00 | 66 | 1016.6 |
| 20260510134547 | 49 | 13 | 0.0 | 0.0 | 0.00 | 0.00 | 0.00 | 66 | 1016.6 |
| 20260510133048 | 47 | 13 | 0.0 | 0.0 | 0.00 | 0.00 | 0.00 | 69 | 1016.5 |
| 20260510131541 | 47 | 13 | 0.0 | 0.0 | 0.00 | 0.00 | 0.00 | 70 | 1016.3 |
| 20260510130028 | 46 | 13 | 0.0 | 0.0 | 0.00 | 0.00 | 0.00 | 70 | 1016.3 |
| 20260510124510 | 46 | 13 | 0.0 | 0.0 | 0.00 | 0.00 | 0.00 | 70 | 1016.2 |
| 20260510123010 | 46 | 13 | 0.0 | 0.0 | 0.00 | 0.00 | 0.00 | 70 | 1016.2 |
| 20260510121550 | 46 | 13 | 0.0 | 0.0 | 0.00 | 0.00 | 0.00 | 69 | 1016.2 |
| 20260510120051 | 46 | 13 | 0.0 | 0.0 | 0.00 | 0.00 | 0.00 | 68 | 1016.1 |
| 20260510114530 | 47 | 13 | 0.0 | 0.0 | 0.00 | 0.00 | 0.00 | 67 | 1016.1 |
| 20260510113028 | 48 | 13 | 0.0 | 0.0 | 0.00 | 0.00 | 0.00 | 67 | 1015.9 |
| 20260510111512 | 48 | 13 | 0.0 | 0.0 | 0.00 | 0.00 | 0.00 | 67 | 1015.7 |
| 20260510110008 | 48 | 13 | 0.0 | 0.0 | 0.00 | 0.00 | 0.00 | 67 | 1015.5 |
| 20260510104554 | 48 | 13 | 0.0 | 0.0 | 0.00 | 0.00 | 0.00 | 66 | 1015.5 |
| 20260510103053 | 49 | 13 | 0.0 | 0.0 | 0.00 | 0.00 | 0.00 | 65 | 1015.4 |
| 20260510101556 | 49 | 13 | 0.0 | 0.0 | 0.00 | 0.00 | 0.00 | 63 | 1015.4 |
| 20260510100049 | 50 | 13 | 0.0 | 0.0 | 0.00 | 0.00 | 0.00 | 63 | 1015.4 |
| 20260510094550 | 50 | 13 | 0.0 | 0.0 | 0.00 | 0.00 | 0.00 | 62 | 1015.3 |
| 20260510093047 | 50 | 13 | 0.0 | 0.0 | 0.00 | 0.00 | 0.00 | 61 | 1015.3 |
| 20260510091544 | 51 | 13 | 0.0 | 0.0 | 0.00 | 0.00 | 0.00 | 60 | 1015.4 |
| 20260510090042 | 51 | 13 | 0.0 | 0.0 | 0.00 | 0.00 | 0.00 | 58 | 1015.3 |
| 20260510084530 | 52 | 13 | 0.0 | 0.0 | 0.00 | 0.00 | 0.00 | 56 | 1015.3 |
| 20260510083024 | 53 | 13 | 0.0 | 0.0 | 0.00 | 0.00 | 0.00 | 53 | 1015.3 |
| 20260510081522 | 53 | 13 | 0.0 | 0.0 | 0.00 | 0.00 | 0.00 | 54 | 1015.4 |
| 20260510080020 | 54 | 13 | 0.0 | 0.0 | 0.00 | 0.00 | 0.00 | 53 | 1015.5 |
| 20260510074519 | 54 | 13 | 0.0 | 0.0 | 0.00 | 0.00 | 0.00 | 52 | 1015.4 |
| 20260510073022 | 54 | 13 | 0.0 | 0.0 | 0.00 | 0.00 | 0.00 | 49 | 1015.3 |
| 20260510071515 | 55 | 13 | 0.0 | 0.0 | 0.00 | 0.00 | 0.00 | 50 | 1015.3 |
| 20260510070014 | 55 | 13 | 0.0 | 0.0 | 0.00 | 0.00 | 0.00 | 50 | 1015.3 |
| 20260510064633 | 56 | 13 | 0.0 | 0.0 | 0.00 | 0.00 | 0.00 | 49 | 1015.3 |
| 20260510063051 | 56 | 13 | 0.0 | 0.0 | 0.00 | 0.00 | 0.00 | 48 | 1015.3 |
| 20260510061536 | 57 | 13 | 0.0 | 0.0 | 0.00 | 0.00 | 0.00 | 45 | 1015.3 |
| 20260510060037 | 58 | 13 | 0.0 | 0.0 | 0.00 | 0.00 | 0.00 | 43 | 1015.2 |
| 20260510054541 | 58 | 13 | 0.0 | 0.0 | 0.00 | 0.00 | 0.00 | 42 | 1015.3 |
| 20260510053042 | 59 | 13 | 0.0 | 0.0 | 0.00 | 0.00 | 0.00 | 45 | 1015.3 |
| 20260510051545 | 59 | 13 | 0.0 | 0.0 | 0.00 | 0.00 | 0.00 | 44 | 1015.2 |
| 20260510050027 | 60 | 13 | 0.0 | 0.0 | 0.00 | 0.00 | 0.00 | 42 | 1015.0 |
| 20260510044524 | 61 | 13 | 0.0 | 0.0 | 0.00 | 0.00 | 0.00 | 41 | 1015.1 |
| 20260510043022 | 62 | 13 | 0.0 | 0.0 | 0.00 | 0.00 | 0.00 | 41 | 1015.1 |
| 20260510041503 | 63 | 13 | 0.0 | 0.0 | 0.00 | 0.00 | 0.00 | 40 | 1015.0 |
| 20260510040100 | 63 | 13 | 0.0 | 0.0 | 0.00 | 0.00 | 0.00 | 37 | 1014.9 |
| 20260510034601 | 65 | 13 | 0.0 | 0.0 | 0.00 | 0.00 | 0.00 | 34 | 1014.7 |
| 20260510033045 | 67 | 13 | 0.0 | 0.0 | 0.00 | 0.00 | 0.00 | 30 | 1014.6 |
| 20260510031534 | 68 | 13 | 0.0 | 0.0 | 0.00 | 0.00 | 0.00 | 29 | 1014.6 |
| 20260510030030 | 70 | 13 | 0.0 | 0.0 | 0.00 | 0.00 | 0.00 | 27 | 1014.5 |
| 20260510024527 | 71 | 13 | 0.0 | 0.0 | 0.00 | 0.00 | 0.00 | 27 | 1014.5 |
| 20260510023024 | 72 | 13 | 0.0 | 0.0 | 0.00 | 0.00 | 0.00 | 24 | 1014.5 |
| 20260510021529 | 73 | 13 | 2.0 | 0.0 | 0.00 | 0.00 | 0.00 | 24 | 1014.4 |
| 20260510020027 | 73 | 331 | 3.0 | 0.0 | 0.00 | 0.00 | 0.00 | 23 | 1014.5 |
| 20260510014518 | 74 | 336 | 3.0 | 0.0 | 0.00 | 0.00 | 0.00 | 22 | 1014.6 |
| 20260510013019 | 74 | 9 | 3.0 | 0.0 | 0.00 | 0.00 | 0.00 | 22 | 1014.5 |
| 20260510011519 | 75 | 333 | 4.0 | 0.0 | 0.00 | 0.00 | 0.00 | 22 | 1014.6 |
| 20260510010019 | 75 | 26 | 0.0 | 0.0 | 0.00 | 0.00 | 0.00 | 21 | 1014.5 |
| 20260510004519 | 75 | 335 | 3.0 | 0.0 | 0.00 | 0.00 | 0.00 | 22 | 1014.6 |
| 20260510003017 | 75 | 355 | 4.0 | 0.0 | 0.00 | 0.00 | 0.00 | 23 | 1014.7 |
| 20260510001554 | 76 | 34 | 4.0 | 0.0 | 0.00 | 0.00 | 0.00 | 21 | 1014.8 |
| 20260510000116 | 76 | 327 | 3.0 | 0.0 | 0.00 | 0.00 | 0.00 | 23 | 1014.7 |
| 20260509234534 | 76 | 324 | 3.0 | 0.0 | 0.00 | 0.00 | 0.00 | 24 | 1014.8 |
| 20260509233034 | 76 | 332 | 4.0 | 0.0 | 0.00 | 0.00 | 0.00 | 24 | 1014.9 |
| 20260509231519 | 76 | 14 | 1.0 | 0.0 | 0.00 | 0.00 | 0.00 | 21 | 1015.1 |
| 20260509230017 | 76 | 294 | 3.0 | 0.0 | 0.00 | 0.00 | 0.00 | 22 | 1015.2 |
| 20260509224513 | 75 | 331 | 4.0 | 0.0 | 0.00 | 0.00 | 0.00 | 23 | 1015.4 |
| 20260509223011 | 75 | 11 | 4.0 | 0.0 | 0.00 | 0.00 | 0.00 | 24 | 1015.6 |
| 20260509221509 | 75 | 327 | 4.0 | 0.0 | 0.00 | 0.00 | 0.00 | 23 | 1015.9 |
| 20260509220007 | 74 | 290 | 4.0 | 0.0 | 0.00 | 0.00 | 0.00 | 24 | 1016.1 |
| 20260509214505 | 74 | 263 | 5.0 | 0.0 | 0.00 | 0.00 | 0.00 | 23 | 1016.3 |
| 20260509213003 | 74 | 325 | 2.0 | 0.0 | 0.00 | 0.00 | 0.00 | 26 | 1016.4 |
| 20260509211547 | 74 | 327 | 2.0 | 0.0 | 0.00 | 0.00 | 0.00 | 23 | 1016.5 |
| 20260509210047 | 73 | 342 | 4.0 | 0.0 | 0.00 | 0.00 | 0.00 | 25 | 1016.8 |
| 20260509204525 | 73 | 280 | 0.0 | 0.0 | 0.00 | 0.00 | 0.00 | 25 | 1016.8 |
| 20260509203033 | 74 | 269 | 0.0 | 0.0 | 0.00 | 0.00 | 0.00 | 30 | 1017.0 |
| 20260509201508 | 72 | 338 | 0.0 | 0.0 | 0.00 | 0.00 | 0.00 | 31 | 1017.1 |
| 20260509200009 | 72 | 333 | 0.0 | 0.0 | 0.00 | 0.00 | 0.00 | 32 | 1017.2 |
| 20260509194507 | 71 | 328 | 0.0 | 0.0 | 0.00 | 0.00 | 0.00 | 37 | 1017.3 |
| 20260509193008 | 70 | 325 | 0.0 | 0.0 | 0.00 | 0.00 | 0.00 | 36 | 1017.6 |
| 20260509191507 | 69 | 328 | 0.0 | 0.0 | 0.00 | 0.00 | 0.00 | 38 | 1017.9 |
| 20260509190007 | 69 | 321 | 2.0 | 0.0 | 0.00 | 0.00 | 0.00 | 37 | 1018.1 |